HAZ2608 ZUCK-ZSHC
Flight info
| Callsign | HAZ2608 |
|---|---|
| Flight time | N/A |
| Altitude | 29100 |
| Route | OLNER1Z OLNER B213 WHA R343 UPLEL W95 SAPIN A470 IGRAT IGRAT91 |
| Aircraft | A320/M-SDE3FGHIRWY/LB1 |
Departure
| Time | 2026-05-04 07:51 |
|---|---|
| Airport | Chongqing Jiangbei International Airport (ZUCK) |
Arrival
| Time | N/A |
|---|---|
| Airport | Hangzhou Xiaoshan International Airport (ZSHC) |
| Time | Latitude | Longitude | Altitude | Speed | Heading |
|---|---|---|---|---|---|
| 2026-05-04 07:19 | 29.71400 | 106.65546 | 1347 ft | 0 kts | 285° |
| 2026-05-04 07:39 | 29.71398 | 106.65555 | 1343 ft | 4 kts | 285° |
| 2026-05-04 07:39 | 29.71390 | 106.65584 | 1346 ft | 4 kts | 292° |
| 2026-05-04 07:39 | 29.71380 | 106.65607 | 1347 ft | 2 kts | 304° |
| 2026-05-04 07:39 | 29.71366 | 106.65631 | 1345 ft | 4 kts | 310° |
| 2026-05-04 07:40 | 29.71347 | 106.65646 | 1344 ft | 4 kts | 345° |
| 2026-05-04 07:40 | 29.71322 | 106.65646 | 1344 ft | 4 kts | 23° |
| 2026-05-04 07:40 | 29.71304 | 106.65636 | 1345 ft | 0 kts | 30° |
| 2026-05-04 07:44 | 29.71322 | 106.65648 | 1344 ft | 6 kts | 31° |
| 2026-05-04 07:44 | 29.71375 | 106.65690 | 1343 ft | 12 kts | 47° |
| 2026-05-04 07:45 | 29.71389 | 106.65801 | 1345 ft | 17 kts | 56° |
| 2026-05-04 07:45 | 29.71494 | 106.65858 | 1341 ft | 8 kts | 29° |
| 2026-05-04 07:45 | 29.71501 | 106.65941 | 1338 ft | 14 kts | 107° |
| 2026-05-04 07:45 | 29.71481 | 106.66018 | 1337 ft | 0 kts | 107° |
| 2026-05-04 07:49 | 29.71568 | 106.66189 | 1336 ft | 0 kts | 17° |
| 2026-05-04 07:50 | 29.71570 | 106.66189 | 1336 ft | 2 kts | 17° |
| 2026-05-04 07:50 | 29.71732 | 106.66244 | 1335 ft | 61 kts | 17° |
| 2026-05-04 07:50 | 29.72367 | 106.66466 | 1330 ft | 127 kts | 17° |
| 2026-05-04 07:51 | 29.73383 | 106.66818 | 1335 ft | 175 kts | 17° |
| 2026-05-04 07:51 | 29.74580 | 106.67231 | 1890 ft | 179 kts | 17° |
| 2026-05-04 07:51 | 29.75781 | 106.67647 | 2597 ft | 180 kts | 18° |
| 2026-05-04 07:51 | 29.76977 | 106.68105 | 3278 ft | 183 kts | 27° |
| 2026-05-04 07:52 | 29.78137 | 106.68840 | 3669 ft | 200 kts | 34° |
| 2026-05-04 07:52 | 29.79378 | 106.69765 | 4003 ft | 225 kts | 36° |
| 2026-05-04 07:52 | 29.80754 | 106.70812 | 4498 ft | 249 kts | 34° |
| 2026-05-04 07:52 | 29.82271 | 106.71953 | 4990 ft | 272 kts | 33° |
| 2026-05-04 07:53 | 29.83891 | 106.73147 | 5794 ft | 279 kts | 34° |
| 2026-05-04 07:54 | 29.87659 | 106.88432 | 10760 ft | 344 kts | 85° |
| 2026-05-04 07:55 | 29.87833 | 106.91278 | 10988 ft | 367 kts | 85° |
| 2026-05-04 07:55 | 29.88017 | 106.94260 | 11486 ft | 378 kts | 85° |
| 2026-05-04 07:55 | 29.88205 | 106.97304 | 12194 ft | 383 kts | 85° |
| 2026-05-04 07:55 | 29.88393 | 107.00379 | 12910 ft | 388 kts | 85° |
| 2026-05-04 07:56 | 29.88581 | 107.03497 | 13614 ft | 392 kts | 84° |
| 2026-05-04 07:56 | 29.88770 | 107.06656 | 14255 ft | 397 kts | 84° |
| 2026-05-04 07:56 | 29.88962 | 107.09838 | 14875 ft | 400 kts | 85° |
| 2026-05-04 07:56 | 29.89155 | 107.13054 | 15483 ft | 404 kts | 85° |
| 2026-05-04 07:57 | 29.89348 | 107.16296 | 16076 ft | 408 kts | 85° |
| 2026-05-04 07:57 | 29.89544 | 107.19577 | 16661 ft | 412 kts | 85° |
| 2026-05-04 07:57 | 29.89741 | 107.22883 | 17239 ft | 415 kts | 85° |
| 2026-05-04 07:57 | 29.89936 | 107.26224 | 17821 ft | 419 kts | 85° |
| 2026-05-04 07:58 | 29.90132 | 107.29582 | 18386 ft | 423 kts | 85° |
| 2026-05-04 07:58 | 29.90330 | 107.32977 | 18844 ft | 427 kts | 85° |
| 2026-05-04 07:58 | 29.90529 | 107.36367 | 19299 ft | 431 kts | 85° |
| 2026-05-04 07:58 | 29.90732 | 107.39831 | 19735 ft | 436 kts | 86° |
| 2026-05-04 07:59 | 29.90937 | 107.43331 | 20168 ft | 441 kts | 86° |
| 2026-05-04 07:59 | 29.91144 | 107.46879 | 20601 ft | 445 kts | 86° |
| 2026-05-04 07:59 | 29.91351 | 107.50458 | 21033 ft | 450 kts | 86° |
| 2026-05-04 07:59 | 29.91557 | 107.54065 | 21453 ft | 454 kts | 86° |
| 2026-05-04 08:00 | 29.91763 | 107.57713 | 21876 ft | 458 kts | 86° |
| 2026-05-04 08:00 | 29.91967 | 107.61389 | 22293 ft | 462 kts | 86° |
| 2026-05-04 08:00 | 29.92173 | 107.65106 | 22697 ft | 466 kts | 86° |